Hauptseite
METAR-TAF:

METAR-TAF

Flughäfen :

Militärflugplatz Meiringen

Meiringen, Schweiz

Breite: 46-44-25N, Länge: 8-06-36E, Höhe: 577 m

Beobachtung

Neuester Wetterbericht von vor 35 Minuten, um 14:20 UTC
Wind 20 kt aus Ost
Temperatur 22°C
Luftfeuchtigkeit 29%
Luftdruck 1003 hPa
Sichtweite 10 km oder mehr

METAR: LSMM 221420Z AUTO 10020KT 9999NDV NCD 22/03 Q1003 RMK

Zeit: 16:55 (14:55 UTC)


TAF: fehlend

Wetterbeobachtungen und Prognosen von mehr als 4000 Flughäfen (METAR und TAF Bericht).

Die verfügbaren Stationen werden durch gelbe und rote Markierungen auf der Karte dargestellt.

Führen Sie die Maus auf sie, um den Namen der Station zu sehen.

Darauf klicken, um die Beobachtung von Wetterbeobachtungen und Prognosen zu sehen.

Um die Karte zu ändern : klicken Sie auf den grünen Tasten mit einem schwarzen Kreuz Zum Vergrößern, auf den grünen Button mit einem Gedankenstrich zu verkleinern, oder auf die grünen Pfeile für benachbarte Karten.


METAR-TAF: